createdAt,value
2022-11-04T00:26:41.004Z,3.44
2022-11-04T00:29:11.290Z,3.31
2022-11-04T00:32:00.464Z,3.21
2022-11-04T00:34:32.330Z,3.18
2022-11-04T00:37:04.114Z,3.18
2022-11-04T00:39:35.911Z,3.19
2022-11-04T00:42:08.095Z,3.21
2022-11-04T00:44:39.971Z,3.22
2022-11-04T00:47:12.047Z,3.23
2022-11-04T00:49:43.831Z,3.27
2022-11-04T00:52:15.627Z,3.33
2022-11-04T00:54:47.545Z,3.39
2022-11-04T00:57:19.281Z,3.44
2022-11-04T00:59:51.203Z,3.47
2022-11-04T01:02:23.525Z,3.48
2022-11-04T01:04:55.376Z,3.45
2022-11-04T01:07:27.443Z,3.42
2022-11-04T01:09:59.271Z,3.42
2022-11-04T01:12:31.205Z,3.43
2022-11-04T01:15:03.270Z,3.48
2022-11-04T01:17:35.159Z,3.53
2022-11-04T01:20:07.659Z,3.60
2022-11-04T01:22:39.480Z,3.67
2022-11-04T01:25:12.215Z,3.75
2022-11-04T01:27:44.031Z,3.83
2022-11-04T01:30:16.355Z,3.88
2022-11-04T01:32:48.160Z,3.91
2022-11-04T01:35:20.174Z,3.95
2022-11-04T01:37:51.891Z,3.95
2022-11-04T01:40:23.811Z,3.97
2022-11-04T01:42:55.587Z,4.01
2022-11-04T01:45:27.524Z,4.08
2022-11-04T01:48:05.236Z,4.17
2022-11-04T01:50:38.149Z,4.28
2022-11-04T01:53:13.207Z,4.40
2022-11-04T01:55:49.621Z,4.50
2022-11-04T01:58:26.882Z,4.60
2022-11-04T02:00:58.756Z,4.68
2022-11-04T02:03:34.522Z,4.72
2022-11-04T02:06:07.559Z,4.73
2022-11-04T02:08:40.674Z,4.73
2022-11-04T02:11:32.455Z,4.74
2022-11-04T02:14:04.849Z,4.79
2022-11-04T02:16:43.997Z,4.82
2022-11-04T02:19:37.848Z,4.86
2022-11-04T02:22:29.230Z,4.92
2022-11-04T02:25:11.015Z,4.96
2022-11-04T02:28:01.119Z,4.95
2022-11-04T02:30:41.374Z,4.91
2022-11-04T02:33:23.419Z,4.86
2022-11-04T02:36:04.407Z,4.76
2022-11-04T02:38:42.220Z,4.69
2022-11-04T02:41:23.059Z,4.68
2022-11-04T02:44:10.011Z,4.68
2022-11-04T02:46:49.651Z,4.67
2022-11-04T02:49:26.603Z,4.68
2022-11-04T02:52:04.178Z,4.71
2022-11-04T02:54:42.440Z,4.69
2022-11-04T02:57:14.937Z,4.65
2022-11-04T02:59:50.719Z,4.63
2022-11-04T03:02:28.063Z,4.61
2022-11-04T03:05:01.894Z,4.58
2022-11-04T03:07:37.081Z,4.54
2022-11-04T03:10:13.998Z,4.52
2022-11-04T03:12:51.273Z,4.52
2022-11-04T03:15:29.553Z,4.51
2022-11-04T03:18:06.147Z,4.53
2022-11-04T03:20:40.749Z,4.58
2022-11-04T03:23:13.995Z,4.59
2022-11-04T03:25:49.161Z,4.61
2022-11-04T03:28:36.403Z,4.64
2022-11-04T03:31:14.599Z,4.69
2022-11-04T03:33:49.766Z,4.75
2022-11-04T03:36:23.386Z,4.79
2022-11-04T03:38:55.363Z,4.82
2022-11-04T03:41:33.089Z,4.85
2022-11-04T03:44:04.933Z,4.91
2022-11-04T03:46:36.909Z,4.95
2022-11-04T03:49:10.913Z,4.98
2022-11-04T03:51:42.938Z,4.97
2022-11-04T03:54:16.507Z,4.96
2022-11-04T03:57:09.102Z,4.97
2022-11-04T03:59:59.751Z,4.99
2022-11-04T04:02:42.439Z,5.08
2022-11-04T04:05:20.739Z,5.22
2022-11-04T04:07:57.662Z,5.34
2022-11-04T04:10:42.845Z,5.42
2022-11-04T04:13:21.791Z,5.44
2022-11-04T04:15:58.727Z,5.46
2022-11-04T04:18:36.829Z,5.47
2022-11-04T04:21:13.630Z,5.49
2022-11-04T04:24:06.725Z,5.50
2022-11-04T04:26:58.845Z,5.55
2022-11-04T04:29:32.117Z,5.62
2022-11-04T04:32:05.243Z,5.66
2022-11-04T04:34:37.822Z,5.69
2022-11-04T04:37:13.225Z,5.71
2022-11-04T04:40:09.719Z,5.72
2022-11-04T04:42:59.287Z,5.70
2022-11-04T04:45:35.947Z,5.70
2022-11-04T04:48:09.771Z,5.71
2022-11-04T04:50:45.998Z,5.75
2022-11-04T04:53:17.902Z,5.81
2022-11-04T04:55:49.818Z,5.89
2022-11-04T04:58:21.871Z,5.97
2022-11-04T05:00:53.689Z,6.01
2022-11-04T05:03:26.916Z,6.07
2022-11-04T05:06:01.775Z,6.13
2022-11-04T05:08:35.276Z,6.16
2022-11-04T05:11:07.210Z,6.14
2022-11-04T05:13:39.268Z,6.11
2022-11-04T05:16:13.324Z,6.07
2022-11-04T05:18:45.121Z,6.06
2022-11-04T05:21:18.105Z,6.07
2022-11-04T05:23:49.853Z,6.11
2022-11-04T05:26:21.650Z,6.15
2022-11-04T05:28:53.416Z,6.18
2022-11-04T05:31:25.290Z,6.21
2022-11-04T05:33:59.006Z,6.25
2022-11-04T05:36:30.919Z,6.28
2022-11-04T05:39:02.883Z,6.30
2022-11-04T05:41:35.199Z,6.29
2022-11-04T05:44:09.616Z,6.25
2022-11-04T05:46:41.432Z,6.21
2022-11-04T05:49:14.042Z,6.18
2022-11-04T05:51:45.840Z,6.17
2022-11-04T05:54:17.582Z,6.16
2022-11-04T05:56:49.375Z,6.17
2022-11-04T05:59:21.391Z,6.19
2022-11-04T06:01:53.274Z,6.25
2022-11-04T06:04:25.100Z,6.29
2022-11-04T06:06:56.855Z,6.32
2022-11-04T06:09:39.849Z,6.34
2022-11-04T06:12:15.068Z,6.34
2022-11-04T06:14:47.220Z,6.31
2022-11-04T06:17:20.805Z,6.32
2022-11-04T06:19:52.617Z,6.35
2022-11-04T06:22:24.405Z,6.41
2022-11-04T06:24:56.562Z,6.48
2022-11-04T06:27:28.898Z,6.57
2022-11-04T06:30:00.694Z,6.67
2022-11-04T06:32:32.486Z,6.76
2022-11-04T06:35:04.255Z,6.84
2022-11-04T06:37:35.991Z,6.84
2022-11-04T06:40:09.604Z,6.86
2022-11-04T06:42:43.114Z,6.90
2022-11-04T06:45:15.195Z,6.96
2022-11-04T06:47:48.867Z,7.03
2022-11-04T06:50:20.902Z,7.11
2022-11-04T06:52:52.745Z,7.20
2022-11-04T06:55:24.672Z,7.29
2022-11-04T06:57:56.636Z,7.37
2022-11-04T07:00:28.746Z,7.46
2022-11-04T07:03:00.727Z,7.55
2022-11-04T07:05:35.309Z,7.62
2022-11-04T07:08:08.313Z,7.67
2022-11-04T07:10:40.590Z,7.72
2022-11-04T07:13:12.754Z,7.77
2022-11-04T07:15:44.656Z,7.80
2022-11-04T07:18:16.432Z,7.85
2022-11-04T07:20:48.424Z,7.90
2022-11-04T07:23:20.235Z,7.95
2022-11-04T07:25:54.327Z,7.99
2022-11-04T07:28:26.221Z,8.01
2022-11-04T07:30:59.972Z,8.06
2022-11-04T07:33:32.909Z,8.12
2022-11-04T07:36:07.869Z,8.19
2022-11-04T07:38:42.094Z,8.29
2022-11-04T07:41:14.334Z,8.40
2022-11-04T07:43:49.345Z,8.49
2022-11-04T07:46:21.937Z,8.55
2022-11-04T07:48:53.826Z,8.61
2022-11-04T07:51:26.077Z,8.67
2022-11-04T07:53:58.930Z,8.75
2022-11-04T07:56:30.961Z,8.81
2022-11-04T07:59:02.826Z,8.85
2022-11-04T08:01:35.076Z,8.88
2022-11-04T08:04:08.039Z,8.94
2022-11-04T08:06:40.253Z,9.02
2022-11-04T08:09:12.218Z,9.16
2022-11-04T08:11:44.001Z,9.30
2022-11-04T08:14:15.743Z,9.41
2022-11-04T08:16:47.667Z,9.51
2022-11-04T08:19:19.569Z,9.55
2022-11-04T08:21:51.433Z,9.54
2022-11-04T08:24:23.608Z,9.52
2022-11-04T08:26:55.520Z,9.57
2022-11-04T08:29:27.666Z,9.65
2022-11-04T08:32:00.412Z,9.79
2022-11-04T08:34:32.531Z,9.91
2022-11-04T08:37:04.495Z,10.02
2022-11-04T08:39:36.346Z,10.15
2022-11-04T08:42:08.161Z,10.33
2022-11-04T08:44:40.606Z,10.48
2022-11-04T08:47:12.807Z,10.54
2022-11-04T08:49:44.543Z,10.58
2022-11-04T08:52:16.342Z,10.61
2022-11-04T08:54:49.668Z,10.67
2022-11-04T08:57:24.172Z,10.77
2022-11-04T08:59:56.039Z,10.90
2022-11-04T09:02:27.884Z,11.04
2022-11-04T09:05:00.301Z,11.16
2022-11-04T09:07:32.224Z,11.28
2022-11-04T09:10:04.018Z,11.41
2022-11-04T09:12:35.981Z,11.52
2022-11-04T09:15:09.276Z,11.60
2022-11-04T09:17:41.747Z,11.69
2022-11-04T09:20:13.953Z,11.76
2022-11-04T09:22:46.176Z,11.90
2022-11-04T09:25:19.113Z,12.05
2022-11-04T09:27:53.741Z,12.26
2022-11-04T09:30:25.632Z,12.43
2022-11-04T09:32:58.296Z,12.55
2022-11-04T09:35:30.840Z,12.68
2022-11-04T09:38:03.525Z,12.76
2022-11-04T09:40:38.522Z,12.80
2022-11-04T09:43:24.662Z,12.81
2022-11-04T09:45:59.581Z,12.82
2022-11-04T09:48:36.293Z,12.76
2022-11-04T09:51:20.924Z,12.67
2022-11-04T09:54:06.809Z,12.60
2022-11-04T09:56:43.597Z,12.59
2022-11-04T09:59:21.274Z,12.65
2022-11-04T10:02:02.679Z,12.77
2022-11-04T10:04:48.321Z,12.90
2022-11-04T10:07:36.103Z,13.00
2022-11-04T10:10:18.506Z,13.11
2022-11-04T10:13:02.498Z,13.23
2022-11-04T10:15:49.052Z,13.36
2022-11-04T10:18:34.067Z,13.43
2022-11-04T10:21:19.281Z,13.41
2022-11-04T10:24:02.863Z,13.37
2022-11-04T10:26:43.490Z,13.43
2022-11-04T10:29:18.419Z,13.49
2022-11-04T10:31:53.316Z,13.54
2022-11-04T10:34:33.828Z,13.57
2022-11-04T10:37:10.367Z,13.59
2022-11-04T10:39:45.104Z,13.63
2022-11-04T10:42:21.556Z,13.63
2022-11-04T10:44:54.264Z,13.62
2022-11-04T10:47:34.831Z,13.62
2022-11-04T10:50:30.529Z,13.64
2022-11-04T10:53:12.935Z,13.69
2022-11-04T10:55:53.066Z,13.73
2022-11-04T10:58:28.347Z,13.77
2022-11-04T11:01:00.852Z,13.86
2022-11-04T11:03:36.015Z,13.93
2022-11-04T11:06:25.241Z,14.03
2022-11-04T11:09:00.263Z,14.11
2022-11-04T11:11:45.297Z,14.18
2022-11-04T11:14:32.950Z,14.21
2022-11-04T11:17:19.889Z,14.23
2022-11-04T11:19:55.220Z,14.30
2022-11-04T11:22:41.594Z,14.38
2022-11-04T11:25:26.634Z,14.46
2022-11-04T11:28:01.902Z,14.51
2022-11-04T11:30:37.165Z,14.53
2022-11-04T11:33:19.448Z,14.59
2022-11-04T11:35:54.483Z,14.72
2022-11-04T11:38:28.619Z,14.84
2022-11-04T11:41:24.370Z,14.96
2022-11-04T11:43:59.872Z,15.13
2022-11-04T11:46:34.201Z,15.30
2022-11-04T11:49:07.052Z,15.46
2022-11-04T11:51:40.222Z,15.62
2022-11-04T11:54:23.797Z,15.69
2022-11-04T11:57:15.370Z,15.73
2022-11-04T12:02:53.256Z,15.90
2022-11-04T12:11:46.748Z,15.87
2022-11-04T12:14:25.843Z,15.84
2022-11-04T12:17:04.512Z,15.82
2022-11-04T12:20:04.002Z,15.76
2022-11-04T12:22:45.404Z,15.69
2022-11-04T12:25:26.121Z,15.56
2022-11-04T12:28:05.849Z,15.50
2022-11-04T12:30:48.051Z,15.48
2022-11-04T12:33:33.612Z,15.49
2022-11-04T12:36:23.065Z,15.50
2022-11-04T12:39:07.282Z,15.54
2022-11-04T12:44:55.154Z,15.58
2022-11-04T12:47:37.951Z,15.61
2022-11-04T12:50:38.810Z,15.67
2022-11-04T12:53:24.856Z,15.77
2022-11-04T12:56:06.341Z,15.85
2022-11-04T12:58:47.978Z,15.93
2022-11-04T13:01:26.289Z,15.98
2022-11-04T13:04:05.864Z,16.03
2022-11-04T13:06:42.283Z,16.07
2022-11-04T13:09:18.432Z,16.09
2022-11-04T13:11:56.256Z,16.11
2022-11-04T13:14:31.874Z,16.10
2022-11-04T13:17:08.013Z,16.08
2022-11-04T13:19:44.763Z,16.03
2022-11-04T13:22:20.168Z,15.98
2022-11-04T13:24:56.711Z,15.96
2022-11-04T13:27:34.217Z,15.97
2022-11-04T13:30:17.291Z,16.01
2022-11-04T13:32:55.702Z,15.99
2022-11-04T13:35:34.941Z,15.87
2022-11-04T13:38:13.300Z,15.73
2022-11-04T13:40:58.833Z,15.57
2022-11-04T13:43:41.855Z,15.42
2022-11-04T13:46:30.844Z,15.24
2022-11-04T13:49:17.045Z,14.99
2022-11-04T13:52:01.822Z,14.77
2022-11-04T13:54:36.303Z,14.61
2022-11-04T13:57:12.437Z,14.47
2022-11-04T14:00:04.546Z,14.35
2022-11-04T14:02:44.696Z,14.16
2022-11-04T14:05:56.643Z,13.94
2022-11-04T14:08:28.824Z,13.73
2022-11-04T14:11:14.464Z,13.58
2022-11-04T14:14:18.085Z,13.45
2022-11-04T14:16:51.035Z,13.29
2022-11-04T14:20:00.831Z,13.18
2022-11-04T14:22:38.946Z,13.03
2022-11-04T14:25:30.517Z,12.89
2022-11-04T14:28:03.734Z,12.75
2022-11-04T14:30:43.351Z,12.62
2022-11-04T14:33:30.383Z,12.46
2022-11-04T14:36:18.577Z,12.32
2022-11-04T14:38:57.897Z,12.19
2022-11-04T14:41:51.600Z,12.11
2022-11-04T14:44:30.071Z,12.03
2022-11-04T14:47:08.426Z,11.95
2022-11-04T14:49:44.212Z,11.80
2022-11-04T14:52:34.612Z,11.67
2022-11-04T14:55:13.759Z,11.55
2022-11-04T14:57:47.659Z,11.41
2022-11-04T15:00:38.224Z,11.23
2022-11-04T15:03:57.560Z,11.07
2022-11-04T15:06:11.075Z,10.89
2022-11-04T15:08:46.914Z,10.76
2022-11-04T15:11:41.838Z,10.66
2022-11-04T15:14:18.349Z,10.56
2022-11-04T15:16:53.695Z,10.50
2022-11-04T15:19:32.074Z,10.44
2022-11-04T15:22:08.235Z,10.38
2022-11-04T15:24:43.533Z,10.31
2022-11-04T15:27:18.965Z,10.22
2022-11-04T15:30:02.782Z,10.14
2022-11-04T15:32:34.730Z,10.04
2022-11-04T15:35:07.451Z,9.94
2022-11-04T15:37:41.967Z,9.84
2022-11-04T15:40:17.938Z,9.76
2022-11-04T15:42:50.991Z,9.70
2022-11-04T15:45:38.297Z,9.67
2022-11-04T15:48:28.867Z,9.66
2022-11-04T15:51:14.159Z,9.62
2022-11-04T15:53:55.064Z,9.56
2022-11-04T15:56:30.364Z,9.47
2022-11-04T15:59:03.020Z,9.38
2022-11-04T16:01:35.432Z,9.29
2022-11-04T16:04:08.568Z,9.19
2022-11-04T16:06:42.260Z,9.13
2022-11-04T16:09:30.715Z,9.12
2022-11-04T16:12:16.682Z,9.11
2022-11-04T16:14:54.060Z,9.10
2022-11-04T16:17:26.697Z,9.08
2022-11-04T16:20:00.506Z,9.06
2022-11-04T16:22:34.408Z,9.03
2022-11-04T16:25:11.022Z,8.98
2022-11-04T16:27:46.252Z,8.94
2022-11-04T16:30:23.129Z,8.87
2022-11-04T16:32:56.776Z,8.83
2022-11-04T16:35:29.345Z,8.81
2022-11-04T16:38:03.386Z,8.79
2022-11-04T16:40:36.012Z,8.79
2022-11-04T16:43:08.043Z,8.80
2022-11-04T16:45:40.837Z,8.85
2022-11-04T16:48:16.125Z,8.89
2022-11-04T16:50:49.080Z,8.91
2022-11-04T16:53:20.901Z,8.86
2022-11-04T16:55:53.892Z,8.80
2022-11-04T16:58:25.693Z,8.72
2022-11-04T17:01:02.532Z,8.63
2022-11-04T17:03:37.386Z,8.58
2022-11-04T17:06:10.568Z,8.54
2022-11-04T17:08:42.783Z,8.52
2022-11-04T17:11:15.119Z,8.53
2022-11-04T17:13:46.894Z,8.54
2022-11-04T17:16:19.881Z,8.54
2022-11-04T17:18:51.662Z,8.52
2022-11-04T17:21:24.317Z,8.46
2022-11-04T17:23:57.061Z,8.38
2022-11-04T17:26:29.042Z,8.32
2022-11-04T17:29:00.927Z,8.27
2022-11-04T17:31:33.062Z,8.25
2022-11-04T17:34:05.958Z,8.26
2022-11-04T17:36:37.895Z,8.27
2022-11-04T17:39:09.658Z,8.30
2022-11-04T17:41:58.785Z,8.31
2022-11-04T17:44:30.850Z,8.32
2022-11-04T17:47:02.651Z,8.33
2022-11-04T17:49:39.105Z,8.27
2022-11-04T17:52:11.178Z,8.17
2022-11-04T17:54:43.567Z,8.05
2022-11-04T17:57:15.299Z,7.96
2022-11-04T17:59:47.067Z,7.93
2022-11-04T18:02:19.054Z,7.95
2022-11-04T18:04:50.958Z,7.95
2022-11-04T18:07:23.272Z,7.94
2022-11-04T18:09:55.138Z,7.94
2022-11-04T18:12:41.458Z,7.94
2022-11-04T18:15:17.118Z,7.97
2022-11-04T18:17:52.713Z,8.02
2022-11-04T18:20:24.688Z,8.05
2022-11-04T18:22:56.520Z,8.06
2022-11-04T18:25:28.270Z,8.06
2022-11-04T18:28:00.452Z,8.01
2022-11-04T18:30:32.743Z,7.92
2022-11-04T18:33:04.611Z,7.83
2022-11-04T18:35:37.457Z,7.77
2022-11-04T18:38:11.435Z,7.73
2022-11-04T18:40:43.823Z,7.71
2022-11-04T18:43:16.205Z,7.72
2022-11-04T18:45:48.265Z,7.75
2022-11-04T18:48:20.001Z,7.75
2022-11-04T18:50:51.881Z,7.74
2022-11-04T18:53:26.997Z,7.72
2022-11-04T18:56:04.491Z,7.67
2022-11-04T18:58:37.728Z,7.62
2022-11-04T19:01:11.445Z,7.56
2022-11-04T19:03:43.201Z,7.49
2022-11-04T19:06:17.969Z,7.42
2022-11-04T19:08:51.553Z,7.38
2022-11-04T19:11:25.841Z,7.37
2022-11-04T19:14:02.840Z,7.38
2022-11-04T19:16:39.015Z,7.40
2022-11-04T19:19:16.412Z,7.40
2022-11-04T19:21:49.697Z,7.41
2022-11-04T19:24:21.500Z,7.44
2022-11-04T19:26:53.257Z,7.47
2022-11-04T19:29:25.080Z,7.51
2022-11-04T19:31:57.326Z,7.55
2022-11-04T19:34:29.166Z,7.56
2022-11-04T19:37:01.015Z,7.55
2022-11-04T19:39:33.465Z,7.53
2022-11-04T19:42:23.514Z,7.52
2022-11-04T19:44:55.245Z,7.53
2022-11-04T19:47:27.023Z,7.56
2022-11-04T19:49:58.779Z,7.60
2022-11-04T19:52:30.645Z,7.66
2022-11-04T19:55:04.058Z,7.71
2022-11-04T19:57:36.330Z,7.75
2022-11-04T20:00:12.094Z,7.78
2022-11-04T20:02:46.190Z,7.79
2022-11-04T20:05:18.643Z,7.80
2022-11-04T20:07:54.136Z,7.82
2022-11-04T20:10:26.601Z,7.84
2022-11-04T20:13:18.238Z,7.82
2022-11-04T20:15:50.118Z,7.81
2022-11-04T20:18:22.260Z,7.80
2022-11-04T20:20:54.041Z,7.82
2022-11-04T20:23:25.806Z,7.83
2022-11-04T20:25:57.596Z,7.86
2022-11-04T20:28:29.398Z,7.90
2022-11-04T20:31:01.672Z,7.95
2022-11-04T20:33:33.481Z,8.02
2022-11-04T20:36:07.482Z,8.06
2022-11-04T20:38:39.977Z,8.10
2022-11-04T20:41:15.514Z,8.11
2022-11-04T20:43:48.671Z,8.10
2022-11-04T20:46:22.046Z,8.08
2022-11-04T20:48:55.228Z,8.05
2022-11-04T20:51:29.996Z,8.03
2022-11-04T20:54:04.354Z,8.04
2022-11-04T20:56:39.226Z,8.04
2022-11-04T20:59:12.596Z,8.06
2022-11-04T21:01:46.588Z,8.11
2022-11-04T21:04:20.417Z,8.18
2022-11-04T21:06:53.363Z,8.25
2022-11-04T21:09:25.514Z,8.32
2022-11-04T21:11:58.267Z,8.35
2022-11-04T21:14:31.899Z,8.33
2022-11-04T21:17:06.957Z,8.25
2022-11-04T21:19:39.112Z,8.19
2022-11-04T21:22:10.987Z,8.16
2022-11-04T21:24:42.831Z,8.14
2022-11-04T21:27:14.595Z,8.14
2022-11-04T21:29:46.637Z,8.17
2022-11-04T21:32:18.741Z,8.22
2022-11-04T21:34:50.861Z,8.31
2022-11-04T21:37:22.591Z,8.39
2022-11-04T21:39:54.954Z,8.47
2022-11-04T21:42:26.791Z,8.54
2022-11-04T21:44:58.590Z,8.59
2022-11-04T21:47:30.417Z,8.59
2022-11-04T21:50:02.227Z,8.59
2022-11-04T21:52:34.110Z,8.58
2022-11-04T21:55:06.913Z,8.58
2022-11-04T21:57:39.588Z,8.60
2022-11-04T22:00:14.352Z,8.61
2022-11-04T22:02:47.467Z,8.60
2022-11-04T22:05:20.073Z,8.56
2022-11-04T22:08:09.102Z,8.53
2022-11-04T22:10:41.062Z,8.51
2022-11-04T22:13:13.024Z,8.48
2022-11-04T22:16:00.675Z,8.46
2022-11-04T22:18:34.699Z,8.46
2022-11-04T22:21:09.285Z,8.47
2022-11-04T22:23:41.353Z,8.49
2022-11-04T22:26:16.029Z,8.52
2022-11-04T22:28:49.299Z,8.55
2022-11-04T22:31:23.589Z,8.57
2022-11-04T22:33:56.081Z,8.57
2022-11-04T22:36:28.178Z,8.56
2022-11-04T22:39:00.070Z,8.54
2022-11-04T22:41:34.475Z,8.51
2022-11-04T22:44:06.543Z,8.49
2022-11-04T22:46:39.667Z,8.48
2022-11-04T22:49:11.471Z,8.48
2022-11-04T22:51:43.262Z,8.50
2022-11-04T22:54:15.153Z,8.51
2022-11-04T22:56:46.960Z,8.52
2022-11-04T22:59:18.948Z,8.52
2022-11-04T23:01:50.909Z,8.51
2022-11-04T23:04:22.736Z,8.48
2022-11-04T23:06:54.479Z,8.46
2022-11-04T23:09:26.291Z,8.43
2022-11-04T23:12:15.964Z,8.40
2022-11-04T23:15:07.793Z,8.38
2022-11-04T23:17:57.095Z,8.37
2022-11-04T23:20:29.761Z,8.36
2022-11-04T23:23:18.938Z,8.37
2022-11-04T23:25:51.190Z,8.39
2022-11-04T23:28:40.499Z,8.42
2022-11-04T23:31:12.256Z,8.42
2022-11-04T23:34:01.359Z,8.41
2022-11-04T23:36:50.982Z,8.39
2022-11-04T23:39:22.716Z,8.36
2022-11-04T23:42:11.860Z,8.33
2022-11-04T23:45:01.474Z,8.30
2022-11-04T23:47:52.123Z,8.32
2022-11-04T23:50:42.918Z,8.35
2022-11-04T23:53:34.720Z,8.39
2022-11-04T23:56:27.966Z,8.43
2022-11-04T23:59:17.005Z,8.45
